Qu Xian, China
Current Conditions -  °F | °C
As of 11:30 AM on Tuesday 23 Dec 2014 (Local Time) from ZSHC Reporting Station
Clear Clear  
Wind Chill: 52°   Ceiling: Unl
Heat Index: 52°   Visibility: 6mi
Dew Point: 16°   Wind: 9mph
Humidity: 24%   Direction: 180°S
Pressure: 30.24"   Gusts: NA
Location:  28.97°N, 118.87°E
Report Text: ZSHC 230330Z 18004MPS 150V210 CAVOK 11/M09 Q1024 NOSIG
Loading
Personal Weather Stations






























Interactive Weather Map New forecast layout! Learn more

10-Day Weather Forecast

Advertisements
Track Severe Weather on mobile